Wabasso, Minnesota
Current Conditions -  °F | °C
As of 2:53 PM on Thursday 18 Dec 2014 (Local Time) from KRWF Reporting Station
Overcast Overcast  
Wind Chill: 12°   Ceiling: 7000
Heat Index: 21°   Visibility: 10mi
Dew Point: 15°   Wind: 7mph
Humidity: 78%   Direction: 130°SE
Pressure: 30.22"   Gusts: NA
Location:  44.4°N, 95.26°W
Report Text: KRWF 182053Z AUTO 13006KT 10SM OVC070 M06/M09 A3022 RMK AO2 SLP256 T10611094 56012
Loading
Personal Weather Stations






























Interactive Weather Map New forecast layout! Learn more

10-Day Weather Forecast

Advertisements
Track Severe Weather on mobile